createdAt,value
2022-12-03T00:00:14.599Z,97582.84
2022-12-03T00:04:17.336Z,97579.69
2022-12-03T00:08:20.137Z,97584.81
2022-12-03T00:12:22.840Z,97586.53
2022-12-03T00:16:27.076Z,97576.47
2022-12-03T00:20:29.828Z,97575.47
2022-12-03T00:24:32.499Z,97580.50
2022-12-03T00:28:35.201Z,97577.84
2022-12-03T00:32:39.254Z,97580.38
2022-12-03T00:36:41.961Z,97581.19
2022-12-03T00:40:44.823Z,97582.03
2022-12-03T00:44:47.477Z,97573.34
2022-12-03T00:48:51.480Z,97581.75
2022-12-03T00:52:54.131Z,97581.19
2022-12-03T00:56:56.791Z,97583.03
2022-12-03T01:00:59.630Z,97583.03
2022-12-03T01:05:03.979Z,97581.34
2022-12-03T01:09:06.742Z,97571.84
2022-12-03T01:13:09.395Z,97575.19
2022-12-03T01:17:12.402Z,97568.19
2022-12-03T01:21:16.472Z,97567.91
2022-12-03T01:25:19.281Z,97568.88
2022-12-03T01:29:21.984Z,97563.72
2022-12-03T01:33:24.682Z,97563.88
2022-12-03T01:37:28.993Z,97568.19
2022-12-03T01:41:32.669Z,97555.75
2022-12-03T01:45:35.333Z,97557.25
2022-12-03T01:49:41.800Z,97559.09
2022-12-03T01:53:47.001Z,97566.63
2022-12-03T01:57:52.416Z,97557.13
2022-12-03T02:01:55.170Z,97566.63
2022-12-03T02:05:57.904Z,97562.72
2022-12-03T02:10:03.644Z,97560.91
2022-12-03T02:14:08.603Z,97558.41
2022-12-03T02:18:11.656Z,97561.59
2022-12-03T02:22:24.190Z,97569.03
2022-12-03T02:26:29.738Z,97572.09
2022-12-03T02:30:33.477Z,97562.44
2022-12-03T02:34:40.933Z,97560.34
2022-12-03T02:38:45.405Z,97559.47
2022-12-03T02:42:52.187Z,97562.13
2022-12-03T02:46:54.944Z,97564.25
2022-12-03T02:51:01.344Z,97572.94
2022-12-03T02:55:07.351Z,97561.75
2022-12-03T02:59:11.465Z,97580.75
2022-12-03T03:03:14.542Z,97569.16
2022-12-03T03:07:17.717Z,97567.63
2022-12-03T03:11:20.500Z,97571.13
2022-12-03T03:15:25.309Z,97573.63
2022-12-03T03:19:28.067Z,97576.81
2022-12-03T03:23:30.791Z,97572.50
2022-12-03T03:27:34.252Z,97577.34
2022-12-03T03:31:39.306Z,97583.97
2022-12-03T03:35:43.233Z,97581.84
2022-12-03T03:39:45.989Z,97572.50
2022-12-03T03:43:50.937Z,97573.31
2022-12-03T03:47:55.669Z,97576.38
2022-12-03T03:51:58.325Z,97567.72
2022-12-03T03:56:01.018Z,97579.34
2022-12-03T04:00:06.432Z,97570.22
2022-12-03T04:04:19.294Z,97565.06
2022-12-03T04:08:22.002Z,97563.38
2022-12-03T04:12:42.400Z,97570.75
2022-12-03T04:16:45.219Z,97561.94
2022-12-03T04:20:49.285Z,97567.28
2022-12-03T04:24:52.194Z,97562.09
2022-12-03T04:28:54.211Z,97565.44
2022-12-03T04:33:14.276Z,97559.00
2022-12-03T04:37:18.300Z,97556.63
2022-12-03T04:41:20.944Z,97554.09
2022-12-03T04:45:23.661Z,97549.66
2022-12-03T04:49:26.770Z,97539.16
2022-12-03T04:53:30.792Z,97536.63
2022-12-03T04:57:33.459Z,97526.13
2022-12-03T05:01:36.190Z,97526.97
2022-12-03T05:05:39.038Z,97529.78
2022-12-03T05:09:43.024Z,97544.47
2022-12-03T05:13:45.677Z,97548.50
2022-12-03T05:17:48.364Z,97568.66
2022-12-03T05:21:51.025Z,97561.50
2022-12-03T05:25:55.357Z,97561.66
2022-12-03T05:29:58.049Z,97550.47
2022-12-03T05:34:00.663Z,97551.16
2022-12-03T05:38:03.380Z,97557.47
2022-12-03T05:42:25.040Z,97559.44
2022-12-03T05:46:27.765Z,97561.94
2022-12-03T05:50:33.230Z,97573.28
2022-12-03T05:54:35.875Z,97578.31
2022-12-03T05:58:39.933Z,97561.81
2022-12-03T06:02:43.061Z,97567.81
2022-12-03T06:06:45.868Z,97573.69
2022-12-03T06:10:48.657Z,97578.88
2022-12-03T06:14:54.911Z,97563.19
2022-12-03T06:18:57.933Z,97577.88
2022-12-03T06:23:00.605Z,97581.91
2022-12-03T06:27:03.357Z,97585.25
2022-12-03T06:31:07.941Z,97576.31
2022-12-03T06:35:10.826Z,97583.97
2022-12-03T06:39:13.827Z,97583.59
2022-12-03T06:43:16.533Z,97580.66
2022-12-03T06:47:20.536Z,97582.34
2022-12-03T06:51:23.172Z,97579.69
2022-12-03T06:55:25.828Z,97576.59
2022-12-03T06:59:28.487Z,97577.19
2022-12-03T07:03:32.527Z,97569.19
2022-12-03T07:07:35.266Z,97574.66
2022-12-03T07:11:40.919Z,97564.16
2022-12-03T07:15:43.730Z,97555.34
2022-12-03T07:19:47.978Z,97546.81
2022-12-03T07:23:50.646Z,97552.41
2022-12-03T07:27:53.327Z,97550.84
2022-12-03T07:31:56.189Z,97556.88
2022-12-03T07:36:00.287Z,97552.00
2022-12-03T07:40:03.589Z,97559.16
2022-12-03T07:49:28.906Z,97549.84
2022-12-03T07:53:32.906Z,97549.44
2022-12-03T07:57:35.787Z,97554.59
2022-12-03T08:01:38.802Z,97555.00
2022-12-03T08:05:41.825Z,97568.69
2022-12-03T08:09:46.265Z,97561.25
2022-12-03T08:13:48.940Z,97549.31
2022-12-03T08:17:56.656Z,97549.88
2022-12-03T08:22:01.575Z,97547.91
2022-12-03T08:26:13.933Z,97542.72
2022-12-03T08:30:18.939Z,97544.25
2022-12-03T08:34:23.305Z,97544.38
2022-12-03T08:38:26.011Z,97550.50
2022-12-03T08:42:44.866Z,97544.53
2022-12-03T08:46:51.230Z,97536.72
2022-12-03T08:50:55.430Z,97548.22
2022-12-03T08:54:58.202Z,97543.13
2022-12-03T08:59:16.664Z,97539.16
2022-12-03T09:03:20.349Z,97543.31
2022-12-03T09:07:22.939Z,97550.13
2022-12-03T09:11:25.765Z,97559.41
2022-12-03T09:15:29.725Z,97556.81
2022-12-03T09:19:32.376Z,97557.72
2022-12-03T09:23:34.982Z,97562.25
2022-12-03T09:27:37.983Z,97558.97
2022-12-03T09:31:42.341Z,97547.47
2022-12-03T09:35:45.081Z,97558.97
2022-12-03T09:39:47.735Z,97534.69
2022-12-03T09:44:03.949Z,97558.91
2022-12-03T09:48:09.055Z,97546.81
2022-12-03T09:52:17.917Z,97558.66
2022-12-03T09:56:23.853Z,97543.44
2022-12-03T10:00:29.119Z,97555.78
2022-12-03T10:04:33.189Z,97548.09
2022-12-03T10:08:35.845Z,97546.72
2022-12-03T10:12:38.557Z,97544.59
2022-12-03T10:16:42.645Z,97546.44
2022-12-03T10:20:47.329Z,97541.94
2022-12-03T10:25:07.614Z,97531.97
2022-12-03T10:29:13.990Z,97522.84
2022-12-03T10:33:19.262Z,97524.13
2022-12-03T10:37:23.880Z,97517.84
2022-12-03T10:41:28.426Z,97517.94
2022-12-03T10:45:31.087Z,97522.63
2022-12-03T10:49:34.636Z,97511.84
2022-12-03T10:53:40.904Z,97510.16
2022-12-03T10:57:45.913Z,97498.31
2022-12-03T11:01:49.915Z,97510.63
2022-12-03T11:05:53.675Z,97502.25
2022-12-03T11:09:58.816Z,97495.25
2022-12-03T11:14:03.017Z,97493.97
2022-12-03T11:18:05.708Z,97482.03
2022-12-03T11:22:45.723Z,97482.50
2022-12-03T11:27:20.730Z,97478.41
2022-12-03T11:31:39.047Z,97481.59
2022-12-03T11:36:31.657Z,97475.88
2022-12-03T11:40:39.889Z,97476.03
2022-12-03T11:44:44.007Z,97468.81
2022-12-03T11:48:48.015Z,97462.50
2022-12-03T11:52:54.711Z,97458.84
2022-12-03T11:56:57.453Z,97454.53
2022-12-03T12:01:03.047Z,97446.00
2022-12-03T12:05:25.393Z,97437.19
2022-12-03T12:09:54.290Z,97432.38
2022-12-03T12:13:58.785Z,97436.94
2022-12-03T12:18:36.143Z,97421.22
2022-12-03T12:22:39.581Z,97433.91
2022-12-03T12:26:51.414Z,97419.59
2022-12-03T12:30:54.210Z,97426.97
2022-12-03T12:35:03.179Z,97409.03
2022-12-03T12:39:09.077Z,97400.84
2022-12-03T12:43:24.966Z,97401.38
2022-12-03T12:47:31.022Z,97414.34
2022-12-03T12:51:35.241Z,97411.22
2022-12-03T12:55:38.742Z,97403.16
2022-12-03T12:59:41.685Z,97408.75
2022-12-03T13:03:44.628Z,97410.38
2022-12-03T13:07:49.287Z,97404.88
2022-12-03T13:11:54.891Z,97395.00
2022-12-03T13:16:04.000Z,97386.72
2022-12-03T13:20:18.838Z,97389.53
2022-12-03T13:24:35.157Z,97385.34
2022-12-03T13:28:37.898Z,97395.03
2022-12-03T13:32:43.044Z,97383.53
2022-12-03T13:36:51.941Z,97368.56
2022-12-03T13:41:02.991Z,97375.53
2022-12-03T13:45:30.961Z,97367.03
2022-12-03T13:49:35.681Z,97365.22
2022-12-03T13:53:41.080Z,97359.22
2022-12-03T13:57:45.132Z,97365.38
2022-12-03T14:01:47.904Z,97364.84
2022-12-03T14:05:50.713Z,97366.66
2022-12-03T14:09:53.679Z,97358.97
2022-12-03T14:13:57.962Z,97373.16
2022-12-03T14:18:00.817Z,97367.44
2022-12-03T14:22:03.549Z,97365.31
2022-12-03T14:26:06.445Z,97345.31
2022-12-03T14:30:11.995Z,97358.63
2022-12-03T14:34:14.647Z,97352.31
2022-12-03T14:38:17.374Z,97345.31
2022-12-03T14:42:20.040Z,97354.66
2022-12-03T14:46:24.215Z,97353.31
2022-12-03T14:50:27.243Z,97358.78
2022-12-03T14:54:30.258Z,97364.41
2022-12-03T14:58:34.405Z,97361.06
2022-12-03T15:02:38.608Z,97366.94
2022-12-03T15:06:41.541Z,97357.28
2022-12-03T15:10:44.538Z,97357.00
2022-12-03T15:14:47.603Z,97352.94
2022-12-03T15:18:51.676Z,97367.66
2022-12-03T15:22:54.514Z,97353.59
2022-12-03T15:26:57.824Z,97372.97
2022-12-03T15:31:00.631Z,97367.72
2022-12-03T15:35:05.262Z,97362.03
2022-12-03T15:39:07.991Z,97358.16
2022-12-03T15:43:11.249Z,97360.00
2022-12-03T15:47:14.072Z,97354.97
2022-12-03T15:51:18.133Z,97352.78
2022-12-03T15:55:21.141Z,97357.28
2022-12-03T15:59:23.883Z,97356.59
2022-12-03T16:03:26.694Z,97351.28
2022-12-03T16:07:30.935Z,97341.75
2022-12-03T16:11:33.711Z,97339.56
2022-12-03T16:15:36.543Z,97347.41
2022-12-03T16:19:39.305Z,97330.66
2022-12-03T16:23:43.509Z,97343.00
2022-12-03T16:27:46.283Z,97320.03
2022-12-03T16:31:48.912Z,97331.06
2022-12-03T16:35:51.600Z,97323.53
2022-12-03T16:39:55.921Z,97329.69
2022-12-03T16:44:01.441Z,97318.22
2022-12-03T16:48:04.269Z,97322.00
2022-12-03T16:52:06.993Z,97325.06
2022-12-03T16:56:11.068Z,97323.69
2022-12-03T17:00:15.269Z,97313.19
2022-12-03T17:04:18.122Z,97322.00
2022-12-03T17:08:20.889Z,97320.34
2022-12-03T17:12:25.504Z,97333.19
2022-12-03T17:16:28.383Z,97334.19
2022-12-03T17:20:31.258Z,97316.69
2022-12-03T17:24:33.998Z,97318.91
2022-12-03T17:28:38.201Z,97304.59
2022-12-03T17:32:41.071Z,97331.06
2022-12-03T17:36:43.750Z,97332.06
2022-12-03T17:40:46.468Z,97326.56
2022-12-03T17:44:50.548Z,97321.22
2022-12-03T17:48:53.228Z,97321.09
2022-12-03T17:52:55.900Z,97310.91
2022-12-03T17:56:58.908Z,97323.22
2022-12-03T18:01:03.534Z,97321.22
2022-12-03T18:05:06.870Z,97323.91
2022-12-03T18:09:09.698Z,97318.97
2022-12-03T18:13:12.391Z,97318.81
2022-12-03T18:17:16.806Z,97325.50
2022-12-03T18:21:19.512Z,97316.50
2022-12-03T18:25:22.235Z,97313.69
2022-12-03T18:29:24.982Z,97309.19
2022-12-03T18:33:29.681Z,97306.03
2022-12-03T18:37:33.663Z,97284.38
2022-12-03T18:41:37.466Z,97301.31
2022-12-03T18:45:40.255Z,97292.81
2022-12-03T18:49:44.361Z,97273.81
2022-12-03T18:53:47.301Z,97287.66
2022-12-03T18:57:50.097Z,97279.34
2022-12-03T19:01:53.008Z,97275.03
2022-12-03T19:05:57.636Z,97290.38
2022-12-03T19:10:00.415Z,97299.16
2022-12-03T19:14:03.981Z,97295.97
2022-12-03T19:18:07.475Z,97300.31
2022-12-03T19:22:11.615Z,97288.69
2022-12-03T19:26:14.999Z,97291.53
2022-12-03T19:30:18.206Z,97295.97
2022-12-03T19:34:21.433Z,97291.34
2022-12-03T19:38:26.962Z,97295.31
2022-12-03T19:42:31.203Z,97283.97
2022-12-03T19:46:34.041Z,97286.81
2022-12-03T19:50:36.834Z,97291.53
2022-12-03T19:54:40.926Z,97281.56
2022-12-03T19:58:45.838Z,97271.75
2022-12-03T20:02:49.933Z,97274.41
2022-12-03T20:06:52.682Z,97277.88
2022-12-03T20:10:56.955Z,97277.00
2022-12-03T20:14:59.636Z,97271.31
2022-12-03T20:19:05.037Z,97274.66
2022-12-03T20:23:07.973Z,97255.69
2022-12-03T20:27:12.068Z,97252.16
2022-12-03T20:31:17.828Z,97254.81
2022-12-03T20:35:20.925Z,97253.84
2022-12-03T20:39:23.804Z,97253.84
2022-12-03T20:43:27.963Z,97237.34
2022-12-03T20:47:30.640Z,97250.66
2022-12-03T20:51:33.744Z,97256.81
2022-12-03T20:55:36.521Z,97250.34
2022-12-03T20:59:40.705Z,97249.50
2022-12-03T21:03:43.619Z,97245.19
2022-12-03T21:07:47.895Z,97237.88
2022-12-03T21:11:50.718Z,97232.41
2022-12-03T21:16:04.449Z,97236.44
2022-12-03T21:20:08.433Z,97233.91
2022-12-03T21:24:13.872Z,97222.41
2022-12-03T21:28:16.986Z,97222.91
2022-12-03T21:32:21.217Z,97217.56
2022-12-03T21:36:24.982Z,97222.44
2022-12-03T21:40:27.716Z,97224.72
2022-12-03T21:44:30.507Z,97218.59
2022-12-03T21:48:35.008Z,97204.94
2022-12-03T21:52:37.909Z,97205.97
2022-12-03T21:56:40.647Z,97207.13
2022-12-03T22:00:43.349Z,97190.97
2022-12-03T22:04:51.801Z,97202.13
2022-12-03T22:08:54.573Z,97210.78
2022-12-03T22:12:57.293Z,97204.66
2022-12-03T22:17:00.154Z,97215.97
2022-12-03T22:21:08.223Z,97199.19
2022-12-03T22:25:10.981Z,97193.53
2022-12-03T22:29:14.003Z,97201.47
2022-12-03T22:33:16.705Z,97190.81
2022-12-03T22:37:20.865Z,97198.94
2022-12-03T22:41:23.557Z,97200.63
2022-12-03T22:45:26.206Z,97204.09
2022-12-03T22:49:29.338Z,97209.78
2022-12-03T22:53:33.365Z,97195.63
2022-12-03T22:57:36.070Z,97195.47
2022-12-03T23:01:40.686Z,97183.00
2022-12-03T23:05:43.388Z,97174.03
2022-12-03T23:09:47.523Z,97171.22
2022-12-03T23:13:50.287Z,97172.16
2022-12-03T23:17:54.789Z,97179.78
2022-12-03T23:21:57.460Z,97177.78
2022-12-03T23:26:03.161Z,97168.50
2022-12-03T23:30:07.948Z,97181.19
2022-12-03T23:34:10.776Z,97174.19
2022-12-03T23:38:13.741Z,97160.72
2022-12-03T23:42:17.816Z,97151.75
2022-12-03T23:46:23.394Z,97151.06
2022-12-03T23:50:26.509Z,97154.94
2022-12-03T23:54:29.254Z,97149.75
2022-12-03T23:58:33.849Z,97141.78
